sensor_id;sensor_type;location;lat;lon;timestamp;P1;durP1;ratioP1;P2;durP2;ratioP2
71187;SDS011;58893;53.130;8.158;2022-07-03T00:01:19;3.67;;;1.60;;
71187;SDS011;58893;53.130;8.158;2022-07-03T00:03:45;1.90;;;1.50;;
71187;SDS011;58893;53.130;8.158;2022-07-03T00:06:11;3.97;;;2.40;;
71187;SDS011;58893;53.130;8.158;2022-07-03T00:08:37;8.30;;;1.70;;
71187;SDS011;58893;53.130;8.158;2022-07-03T00:11:03;6.67;;;1.80;;
71187;SDS011;58893;53.130;8.158;2022-07-03T00:13:29;2.90;;;2.10;;
71187;SDS011;58893;53.130;8.158;2022-07-03T00:15:55;7.90;;;1.70;;
71187;SDS011;58893;53.130;8.158;2022-07-03T00:18:20;4.03;;;1.60;;
71187;SDS011;58893;53.130;8.158;2022-07-03T00:20:50;7.70;;;2.10;;
71187;SDS011;58893;53.130;8.158;2022-07-03T00:23:24;3.00;;;1.87;;
71187;SDS011;58893;53.130;8.158;2022-07-03T00:25:53;4.53;;;1.60;;
71187;SDS011;58893;53.130;8.158;2022-07-03T00:28:20;4.70;;;2.23;;
71187;SDS011;58893;53.130;8.158;2022-07-03T00:30:47;1.90;;;1.60;;
71187;SDS011;58893;53.130;8.158;2022-07-03T00:33:13;1.97;;;1.50;;
71187;SDS011;58893;53.130;8.158;2022-07-03T00:35:40;3.30;;;1.90;;
71187;SDS011;58893;53.130;8.158;2022-07-03T00:38:07;3.60;;;2.00;;
71187;SDS011;58893;53.130;8.158;2022-07-03T00:40:35;8.00;;;2.30;;
71187;SDS011;58893;53.130;8.158;2022-07-03T00:43:00;5.20;;;2.50;;
71187;SDS011;58893;53.130;8.158;2022-07-03T00:45:28;3.43;;;1.80;;
71187;SDS011;58893;53.130;8.158;2022-07-03T00:48:00;2.23;;;1.40;;
71187;SDS011;58893;53.130;8.158;2022-07-03T00:50:29;2.13;;;1.90;;
71187;SDS011;58893;53.130;8.158;2022-07-03T00:52:59;3.73;;;1.90;;
71187;SDS011;58893;53.130;8.158;2022-07-03T00:55:27;6.30;;;2.53;;
71187;SDS011;58893;53.130;8.158;2022-07-03T00:57:54;7.13;;;2.40;;
71187;SDS011;58893;53.130;8.158;2022-07-03T01:00:22;2.87;;;2.00;;
71187;SDS011;58893;53.130;8.158;2022-07-03T01:02:54;6.40;;;3.27;;
71187;SDS011;58893;53.130;8.158;2022-07-03T01:11:23;2.23;;;1.90;;
71187;SDS011;58893;53.130;8.158;2022-07-03T01:13:46;12.00;;;2.40;;
71187;SDS011;58893;53.130;8.158;2022-07-03T01:16:47;4.13;;;2.23;;
71187;SDS011;58893;53.130;8.158;2022-07-03T01:19:37;5.50;;;2.50;;
71187;SDS011;58893;53.130;8.158;2022-07-03T01:29:56;2.63;;;2.17;;
71187;SDS011;58893;53.130;8.158;2022-07-03T01:32:38;2.63;;;1.60;;
71187;SDS011;58893;53.130;8.158;2022-07-03T01:35:08;4.77;;;2.60;;
71187;SDS011;58893;53.130;8.158;2022-07-03T01:37:39;4.40;;;2.30;;
71187;SDS011;58893;53.130;8.158;2022-07-03T01:40:06;4.77;;;2.10;;
71187;SDS011;58893;53.130;8.158;2022-07-03T01:42:33;6.87;;;2.57;;
71187;SDS011;58893;53.130;8.158;2022-07-03T01:45:02;7.10;;;2.00;;
71187;SDS011;58893;53.130;8.158;2022-07-03T01:47:28;4.00;;;2.47;;
71187;SDS011;58893;53.130;8.158;2022-07-03T01:49:56;3.20;;;2.20;;
71187;SDS011;58893;53.130;8.158;2022-07-03T01:52:22;1.67;;;1.57;;
71187;SDS011;58893;53.130;8.158;2022-07-03T01:54:50;2.30;;;1.90;;
71187;SDS011;58893;53.130;8.158;2022-07-03T01:57:17;4.83;;;1.93;;
71187;SDS011;58893;53.130;8.158;2022-07-03T01:59:43;2.47;;;1.90;;
71187;SDS011;58893;53.130;8.158;2022-07-03T02:02:14;3.83;;;1.90;;
71187;SDS011;58893;53.130;8.158;2022-07-03T02:04:54;4.93;;;1.93;;
71187;SDS011;58893;53.130;8.158;2022-07-03T02:07:44;8.27;;;2.07;;
71187;SDS011;58893;53.130;8.158;2022-07-03T02:10:18;2.00;;;1.87;;
71187;SDS011;58893;53.130;8.158;2022-07-03T02:12:52;5.10;;;2.33;;
71187;SDS011;58893;53.130;8.158;2022-07-03T02:15:31;3.30;;;2.60;;
71187;SDS011;58893;53.130;8.158;2022-07-03T02:18:00;12.23;;;2.20;;
71187;SDS011;58893;53.130;8.158;2022-07-03T02:20:35;2.20;;;1.83;;
71187;SDS011;58893;53.130;8.158;2022-07-03T02:23:04;2.07;;;1.87;;
71187;SDS011;58893;53.130;8.158;2022-07-03T02:25:33;3.63;;;2.20;;
71187;SDS011;58893;53.130;8.158;2022-07-03T02:28:05;2.97;;;2.20;;
71187;SDS011;58893;53.130;8.158;2022-07-03T02:30:36;3.97;;;2.10;;
71187;SDS011;58893;53.130;8.158;2022-07-03T02:33:07;3.07;;;2.20;;
71187;SDS011;58893;53.130;8.158;2022-07-03T02:35:35;4.60;;;2.27;;
71187;SDS011;58893;53.130;8.158;2022-07-03T02:49:20;4.43;;;2.17;;
71187;SDS011;58893;53.130;8.158;2022-07-03T02:52:02;6.87;;;1.77;;
71187;SDS011;58893;53.130;8.158;2022-07-03T02:54:39;3.00;;;2.30;;
71187;SDS011;58893;53.130;8.158;2022-07-03T02:57:12;5.07;;;2.10;;
71187;SDS011;58893;53.130;8.158;2022-07-03T02:59:45;4.20;;;2.60;;
71187;SDS011;58893;53.130;8.158;2022-07-03T03:10:25;9.53;;;2.07;;
71187;SDS011;58893;53.130;8.158;2022-07-03T03:13:04;7.13;;;2.77;;
71187;SDS011;58893;53.130;8.158;2022-07-03T03:15:31;5.50;;;2.20;;
71187;SDS011;58893;53.130;8.158;2022-07-03T03:18:05;4.30;;;2.30;;
71187;SDS011;58893;53.130;8.158;2022-07-03T03:20:33;6.67;;;2.67;;
71187;SDS011;58893;53.130;8.158;2022-07-03T03:26:00;12.73;;;2.90;;
71187;SDS011;58893;53.130;8.158;2022-07-03T03:28:25;5.23;;;2.53;;
71187;SDS011;58893;53.130;8.158;2022-07-03T03:30:52;4.83;;;1.80;;
71187;SDS011;58893;53.130;8.158;2022-07-03T03:33:17;4.50;;;1.60;;
71187;SDS011;58893;53.130;8.158;2022-07-03T03:35:44;4.00;;;2.60;;
71187;SDS011;58893;53.130;8.158;2022-07-03T03:38:10;7.13;;;2.17;;
71187;SDS011;58893;53.130;8.158;2022-07-03T03:40:36;4.40;;;2.37;;
71187;SDS011;58893;53.130;8.158;2022-07-03T03:43:02;3.70;;;2.20;;
71187;SDS011;58893;53.130;8.158;2022-07-03T03:45:29;4.20;;;2.00;;
71187;SDS011;58893;53.130;8.158;2022-07-03T03:47:54;3.30;;;2.27;;
71187;SDS011;58893;53.130;8.158;2022-07-03T03:50:21;5.20;;;2.37;;
71187;SDS011;58893;53.130;8.158;2022-07-03T03:52:47;2.10;;;1.83;;
71187;SDS011;58893;53.130;8.158;2022-07-03T03:55:12;2.90;;;2.17;;
71187;SDS011;58893;53.130;8.158;2022-07-03T03:57:38;2.77;;;2.10;;
71187;SDS011;58893;53.130;8.158;2022-07-03T04:00:04;4.03;;;1.73;;
71187;SDS011;58893;53.130;8.158;2022-07-03T04:02:31;2.17;;;1.90;;
71187;SDS011;58893;53.130;8.158;2022-07-03T04:04:57;9.33;;;2.20;;
71187;SDS011;58893;53.130;8.158;2022-07-03T04:07:22;4.23;;;2.23;;
71187;SDS011;58893;53.130;8.158;2022-07-03T04:09:48;5.57;;;2.67;;
71187;SDS011;58893;53.130;8.158;2022-07-03T04:12:14;5.27;;;3.90;;
71187;SDS011;58893;53.130;8.158;2022-07-03T04:14:39;3.00;;;2.80;;
71187;SDS011;58893;53.130;8.158;2022-07-03T04:17:05;3.07;;;2.10;;
71187;SDS011;58893;53.130;8.158;2022-07-03T04:19:31;3.60;;;2.07;;
71187;SDS011;58893;53.130;8.158;2022-07-03T04:21:56;2.60;;;2.17;;
71187;SDS011;58893;53.130;8.158;2022-07-03T04:24:22;2.33;;;2.00;;
71187;SDS011;58893;53.130;8.158;2022-07-03T04:26:48;4.03;;;2.13;;
71187;SDS011;58893;53.130;8.158;2022-07-03T04:29:14;4.20;;;2.60;;
71187;SDS011;58893;53.130;8.158;2022-07-03T04:31:39;3.27;;;2.20;;
71187;SDS011;58893;53.130;8.158;2022-07-03T04:34:05;8.47;;;3.90;;
71187;SDS011;58893;53.130;8.158;2022-07-03T04:36:30;3.43;;;2.27;;
71187;SDS011;58893;53.130;8.158;2022-07-03T04:38:56;3.20;;;2.17;;
71187;SDS011;58893;53.130;8.158;2022-07-03T04:41:22;4.03;;;2.47;;
71187;SDS011;58893;53.130;8.158;2022-07-03T04:43:47;7.00;;;2.77;;
71187;SDS011;58893;53.130;8.158;2022-07-03T04:46:13;2.97;;;2.50;;
71187;SDS011;58893;53.130;8.158;2022-07-03T04:48:39;4.07;;;2.80;;
71187;SDS011;58893;53.130;8.158;2022-07-03T04:51:05;3.50;;;2.50;;
71187;SDS011;58893;53.130;8.158;2022-07-03T04:53:30;5.10;;;2.80;;
71187;SDS011;58893;53.130;8.158;2022-07-03T04:55:56;3.43;;;2.40;;
71187;SDS011;58893;53.130;8.158;2022-07-03T04:58:21;6.07;;;2.60;;
71187;SDS011;58893;53.130;8.158;2022-07-03T05:00:47;5.90;;;2.97;;
71187;SDS011;58893;53.130;8.158;2022-07-03T05:03:13;4.13;;;2.60;;
71187;SDS011;58893;53.130;8.158;2022-07-03T05:05:38;3.93;;;2.30;;
71187;SDS011;58893;53.130;8.158;2022-07-03T05:08:04;10.27;;;2.70;;
71187;SDS011;58893;53.130;8.158;2022-07-03T05:10:30;4.80;;;2.80;;
71187;SDS011;58893;53.130;8.158;2022-07-03T05:12:56;8.03;;;3.63;;
71187;SDS011;58893;53.130;8.158;2022-07-03T05:15:21;3.40;;;2.50;;
71187;SDS011;58893;53.130;8.158;2022-07-03T05:17:48;8.30;;;2.77;;
71187;SDS011;58893;53.130;8.158;2022-07-03T05:20:14;3.33;;;2.63;;
71187;SDS011;58893;53.130;8.158;2022-07-03T05:22:49;5.10;;;3.47;;
71187;SDS011;58893;53.130;8.158;2022-07-03T05:25:15;5.23;;;2.70;;
71187;SDS011;58893;53.130;8.158;2022-07-03T05:27:40;2.73;;;2.53;;
71187;SDS011;58893;53.130;8.158;2022-07-03T05:30:06;3.57;;;2.37;;
71187;SDS011;58893;53.130;8.158;2022-07-03T05:32:32;7.07;;;2.80;;
71187;SDS011;58893;53.130;8.158;2022-07-03T05:34:58;3.53;;;2.47;;
71187;SDS011;58893;53.130;8.158;2022-07-03T05:37:23;5.73;;;2.77;;
71187;SDS011;58893;53.130;8.158;2022-07-03T05:39:49;4.23;;;2.60;;
71187;SDS011;58893;53.130;8.158;2022-07-03T05:42:15;5.93;;;2.23;;
71187;SDS011;58893;53.130;8.158;2022-07-03T05:44:40;3.30;;;2.20;;
71187;SDS011;58893;53.130;8.158;2022-07-03T05:47:06;6.53;;;2.87;;
71187;SDS011;58893;53.130;8.158;2022-07-03T05:49:32;7.83;;;2.63;;
71187;SDS011;58893;53.130;8.158;2022-07-03T05:51:57;5.07;;;2.50;;
71187;SDS011;58893;53.130;8.158;2022-07-03T05:54:23;14.90;;;2.37;;
71187;SDS011;58893;53.130;8.158;2022-07-03T05:56:48;2.57;;;2.37;;
71187;SDS011;58893;53.130;8.158;2022-07-03T05:59:14;5.80;;;2.53;;
71187;SDS011;58893;53.130;8.158;2022-07-03T06:01:40;9.43;;;2.30;;
71187;SDS011;58893;53.130;8.158;2022-07-03T06:04:05;3.27;;;2.20;;
71187;SDS011;58893;53.130;8.158;2022-07-03T06:06:31;3.40;;;2.53;;
71187;SDS011;58893;53.130;8.158;2022-07-03T06:08:56;5.43;;;2.47;;
71187;SDS011;58893;53.130;8.158;2022-07-03T06:11:22;9.73;;;2.43;;
71187;SDS011;58893;53.130;8.158;2022-07-03T06:13:48;4.23;;;1.90;;
71187;SDS011;58893;53.130;8.158;2022-07-03T06:16:13;3.73;;;2.40;;
71187;SDS011;58893;53.130;8.158;2022-07-03T06:18:39;4.47;;;2.70;;
71187;SDS011;58893;53.130;8.158;2022-07-03T06:21:05;1.87;;;1.70;;
71187;SDS011;58893;53.130;8.158;2022-07-03T06:23:30;3.63;;;2.40;;
71187;SDS011;58893;53.130;8.158;2022-07-03T06:25:56;7.07;;;2.17;;
71187;SDS011;58893;53.130;8.158;2022-07-03T06:28:21;5.60;;;2.57;;
71187;SDS011;58893;53.130;8.158;2022-07-03T06:30:47;12.87;;;2.20;;
71187;SDS011;58893;53.130;8.158;2022-07-03T06:33:13;7.40;;;2.50;;
71187;SDS011;58893;53.130;8.158;2022-07-03T06:35:38;2.60;;;1.83;;
71187;SDS011;58893;53.130;8.158;2022-07-03T06:38:04;3.47;;;1.60;;
71187;SDS011;58893;53.130;8.158;2022-07-03T06:40:30;3.20;;;1.87;;
71187;SDS011;58893;53.130;8.158;2022-07-03T06:42:56;2.10;;;1.83;;
71187;SDS011;58893;53.130;8.158;2022-07-03T06:45:22;1.80;;;1.60;;
71187;SDS011;58893;53.130;8.158;2022-07-03T06:47:47;3.70;;;1.93;;
71187;SDS011;58893;53.130;8.158;2022-07-03T06:50:13;8.63;;;2.33;;
71187;SDS011;58893;53.130;8.158;2022-07-03T06:52:38;6.13;;;1.70;;
71187;SDS011;58893;53.130;8.158;2022-07-03T06:55:05;1.90;;;1.77;;
71187;SDS011;58893;53.130;8.158;2022-07-03T06:57:30;4.30;;;1.97;;
71187;SDS011;58893;53.130;8.158;2022-07-03T06:59:56;5.87;;;2.20;;
71187;SDS011;58893;53.130;8.158;2022-07-03T07:02:22;4.60;;;2.17;;
71187;SDS011;58893;53.130;8.158;2022-07-03T07:04:47;3.17;;;2.00;;
71187;SDS011;58893;53.130;8.158;2022-07-03T07:07:13;1.83;;;1.60;;
71187;SDS011;58893;53.130;8.158;2022-07-03T07:09:39;13.17;;;2.00;;
71187;SDS011;58893;53.130;8.158;2022-07-03T07:12:05;4.80;;;2.00;;
71187;SDS011;58893;53.130;8.158;2022-07-03T07:14:31;2.40;;;2.10;;
71187;SDS011;58893;53.130;8.158;2022-07-03T07:16:56;10.57;;;2.33;;
71187;SDS011;58893;53.130;8.158;2022-07-03T07:19:22;3.27;;;2.00;;
71187;SDS011;58893;53.130;8.158;2022-07-03T07:21:48;4.00;;;1.83;;
71187;SDS011;58893;53.130;8.158;2022-07-03T07:24:13;2.10;;;1.70;;
71187;SDS011;58893;53.130;8.158;2022-07-03T07:26:39;2.80;;;1.80;;
71187;SDS011;58893;53.130;8.158;2022-07-03T07:29:05;2.27;;;2.00;;
71187;SDS011;58893;53.130;8.158;2022-07-03T07:31:31;7.23;;;2.07;;
71187;SDS011;58893;53.130;8.158;2022-07-03T07:33:56;3.80;;;1.87;;
71187;SDS011;58893;53.130;8.158;2022-07-03T07:36:22;2.80;;;1.93;;
71187;SDS011;58893;53.130;8.158;2022-07-03T07:38:48;5.67;;;2.57;;
71187;SDS011;58893;53.130;8.158;2022-07-03T07:41:14;5.17;;;2.03;;
71187;SDS011;58893;53.130;8.158;2022-07-03T07:43:39;5.57;;;2.30;;
71187;SDS011;58893;53.130;8.158;2022-07-03T07:46:05;3.30;;;2.00;;
71187;SDS011;58893;53.130;8.158;2022-07-03T07:48:30;3.37;;;1.87;;
71187;SDS011;58893;53.130;8.158;2022-07-03T07:50:58;2.13;;;2.00;;
71187;SDS011;58893;53.130;8.158;2022-07-03T07:53:24;4.43;;;2.00;;
71187;SDS011;58893;53.130;8.158;2022-07-03T07:55:49;3.97;;;2.17;;
71187;SDS011;58893;53.130;8.158;2022-07-03T07:58:15;3.40;;;2.00;;
71187;SDS011;58893;53.130;8.158;2022-07-03T08:00:41;2.30;;;1.90;;
71187;SDS011;58893;53.130;8.158;2022-07-03T08:03:26;6.30;;;2.00;;
71187;SDS011;58893;53.130;8.158;2022-07-03T08:06:10;2.10;;;1.80;;
71187;SDS011;58893;53.130;8.158;2022-07-03T08:08:36;2.70;;;1.60;;
71187;SDS011;58893;53.130;8.158;2022-07-03T08:11:01;4.63;;;2.53;;
71187;SDS011;58893;53.130;8.158;2022-07-03T08:13:27;3.63;;;1.97;;
71187;SDS011;58893;53.130;8.158;2022-07-03T08:15:53;3.27;;;1.93;;
71187;SDS011;58893;53.130;8.158;2022-07-03T08:18:18;2.07;;;1.87;;
71187;SDS011;58893;53.130;8.158;2022-07-03T08:20:44;2.97;;;1.83;;
71187;SDS011;58893;53.130;8.158;2022-07-03T08:23:10;6.80;;;2.00;;
71187;SDS011;58893;53.130;8.158;2022-07-03T08:25:35;2.60;;;1.93;;
71187;SDS011;58893;53.130;8.158;2022-07-03T08:28:01;2.00;;;1.90;;
71187;SDS011;58893;53.130;8.158;2022-07-03T08:30:27;4.03;;;2.10;;
71187;SDS011;58893;53.130;8.158;2022-07-03T08:32:53;2.00;;;1.80;;
71187;SDS011;58893;53.130;8.158;2022-07-03T08:35:20;10.33;;;1.90;;
71187;SDS011;58893;53.130;8.158;2022-07-03T08:37:46;2.17;;;1.90;;
71187;SDS011;58893;53.130;8.158;2022-07-03T08:40:15;2.63;;;2.20;;
71187;SDS011;58893;53.130;8.158;2022-07-03T08:42:46;2.83;;;1.77;;
71187;SDS011;58893;53.130;8.158;2022-07-03T08:45:16;4.03;;;2.20;;
71187;SDS011;58893;53.130;8.158;2022-07-03T08:47:44;2.43;;;1.97;;
71187;SDS011;58893;53.130;8.158;2022-07-03T08:50:11;3.43;;;1.73;;
71187;SDS011;58893;53.130;8.158;2022-07-03T08:52:41;3.90;;;2.17;;
71187;SDS011;58893;53.130;8.158;2022-07-03T08:55:07;4.47;;;2.40;;
71187;SDS011;58893;53.130;8.158;2022-07-03T08:57:35;3.70;;;2.00;;
71187;SDS011;58893;53.130;8.158;2022-07-03T09:00:05;8.27;;;2.63;;
71187;SDS011;58893;53.130;8.158;2022-07-03T09:02:32;5.17;;;2.33;;
71187;SDS011;58893;53.130;8.158;2022-07-03T09:04:59;8.03;;;2.13;;
71187;SDS011;58893;53.130;8.158;2022-07-03T09:07:27;3.50;;;1.93;;
71187;SDS011;58893;53.130;8.158;2022-07-03T09:09:55;2.73;;;1.70;;
71187;SDS011;58893;53.130;8.158;2022-07-03T09:12:20;2.53;;;1.70;;
71187;SDS011;58893;53.130;8.158;2022-07-03T09:14:46;3.20;;;1.90;;
71187;SDS011;58893;53.130;8.158;2022-07-03T09:17:12;4.60;;;2.33;;
71187;SDS011;58893;53.130;8.158;2022-07-03T09:19:44;3.30;;;2.20;;
71187;SDS011;58893;53.130;8.158;2022-07-03T09:24:43;5.93;;;1.80;;
71187;SDS011;58893;53.130;8.158;2022-07-03T09:27:10;3.10;;;1.40;;
71187;SDS011;58893;53.130;8.158;2022-07-03T09:35:12;2.03;;;1.43;;
71187;SDS011;58893;53.130;8.158;2022-07-03T09:37:54;5.47;;;1.37;;
71187;SDS011;58893;53.130;8.158;2022-07-03T09:40:20;2.33;;;1.10;;
71187;SDS011;58893;53.130;8.158;2022-07-03T09:48:33;3.00;;;1.40;;
71187;SDS011;58893;53.130;8.158;2022-07-03T09:53:46;1.30;;;1.10;;
71187;SDS011;58893;53.130;8.158;2022-07-03T09:56:13;3.23;;;1.23;;
71187;SDS011;58893;53.130;8.158;2022-07-03T09:58:41;1.93;;;1.40;;
71187;SDS011;58893;53.130;8.158;2022-07-03T10:01:23;4.07;;;1.30;;
71187;SDS011;58893;53.130;8.158;2022-07-03T10:03:49;1.67;;;0.90;;
71187;SDS011;58893;53.130;8.158;2022-07-03T10:06:15;8.30;;;1.30;;
71187;SDS011;58893;53.130;8.158;2022-07-03T10:08:41;1.10;;;1.00;;
71187;SDS011;58893;53.130;8.158;2022-07-03T10:11:07;14.67;;;1.53;;
71187;SDS011;58893;53.130;8.158;2022-07-03T10:13:35;1.07;;;1.00;;
71187;SDS011;58893;53.130;8.158;2022-07-03T10:16:05;1.00;;;0.80;;
71187;SDS011;58893;53.130;8.158;2022-07-03T10:18:34;5.43;;;1.40;;
71187;SDS011;58893;53.130;8.158;2022-07-03T10:21:07;2.37;;;1.20;;
71187;SDS011;58893;53.130;8.158;2022-07-03T10:23:35;1.33;;;1.23;;
71187;SDS011;58893;53.130;8.158;2022-07-03T10:26:01;1.77;;;1.60;;
71187;SDS011;58893;53.130;8.158;2022-07-03T10:28:27;2.20;;;1.07;;
71187;SDS011;58893;53.130;8.158;2022-07-03T10:30:55;1.20;;;1.10;;
71187;SDS011;58893;53.130;8.158;2022-07-03T10:33:21;2.10;;;1.20;;
71187;SDS011;58893;53.130;8.158;2022-07-03T10:35:48;5.87;;;1.20;;
71187;SDS011;58893;53.130;8.158;2022-07-03T10:44:12;5.23;;;1.10;;
71187;SDS011;58893;53.130;8.158;2022-07-03T10:46:56;4.20;;;1.40;;
71187;SDS011;58893;53.130;8.158;2022-07-03T10:49:22;3.73;;;1.23;;
71187;SDS011;58893;53.130;8.158;2022-07-03T10:52:01;3.83;;;1.17;;
71187;SDS011;58893;53.130;8.158;2022-07-03T10:54:29;2.07;;;1.30;;
71187;SDS011;58893;53.130;8.158;2022-07-03T11:02:21;2.20;;;1.30;;
71187;SDS011;58893;53.130;8.158;2022-07-03T11:07:29;2.27;;;1.40;;
71187;SDS011;58893;53.130;8.158;2022-07-03T11:20:32;1.73;;;1.30;;
71187;SDS011;58893;53.130;8.158;2022-07-03T11:23:02;4.40;;;1.50;;
71187;SDS011;58893;53.130;8.158;2022-07-03T11:25:48;1.80;;;1.20;;
71187;SDS011;58893;53.130;8.158;2022-07-03T11:41:24;2.50;;;1.27;;
71187;SDS011;58893;53.130;8.158;2022-07-03T11:46:22;2.60;;;1.47;;
71187;SDS011;58893;53.130;8.158;2022-07-03T11:48:48;3.63;;;1.20;;
71187;SDS011;58893;53.130;8.158;2022-07-03T11:51:15;1.83;;;1.20;;
71187;SDS011;58893;53.130;8.158;2022-07-03T11:53:41;2.33;;;1.30;;
71187;SDS011;58893;53.130;8.158;2022-07-03T11:56:08;3.50;;;1.17;;
71187;SDS011;58893;53.130;8.158;2022-07-03T11:58:45;2.90;;;1.40;;
71187;SDS011;58893;53.130;8.158;2022-07-03T12:03:51;2.87;;;1.40;;
71187;SDS011;58893;53.130;8.158;2022-07-03T12:06:17;3.07;;;1.37;;
71187;SDS011;58893;53.130;8.158;2022-07-03T12:08:44;1.40;;;1.30;;
71187;SDS011;58893;53.130;8.158;2022-07-03T12:11:13;4.37;;;1.73;;
71187;SDS011;58893;53.130;8.158;2022-07-03T12:13:40;1.70;;;1.23;;
71187;SDS011;58893;53.130;8.158;2022-07-03T12:16:07;5.73;;;1.50;;
71187;SDS011;58893;53.130;8.158;2022-07-03T12:18:48;2.70;;;1.30;;
71187;SDS011;58893;53.130;8.158;2022-07-03T12:21:19;2.40;;;1.20;;
71187;SDS011;58893;53.130;8.158;2022-07-03T12:23:47;1.67;;;0.90;;
71187;SDS011;58893;53.130;8.158;2022-07-03T12:26:31;1.43;;;0.90;;
71187;SDS011;58893;53.130;8.158;2022-07-03T12:29:00;3.83;;;1.40;;
71187;SDS011;58893;53.130;8.158;2022-07-03T12:31:27;5.30;;;1.10;;
71187;SDS011;58893;53.130;8.158;2022-07-03T12:33:57;3.80;;;1.10;;
71187;SDS011;58893;53.130;8.158;2022-07-03T12:36:25;3.60;;;1.33;;
71187;SDS011;58893;53.130;8.158;2022-07-03T12:38:53;2.57;;;1.10;;
71187;SDS011;58893;53.130;8.158;2022-07-03T12:41:20;4.80;;;1.30;;
71187;SDS011;58893;53.130;8.158;2022-07-03T12:43:47;1.40;;;1.30;;
71187;SDS011;58893;53.130;8.158;2022-07-03T12:48:59;5.53;;;1.40;;
71187;SDS011;58893;53.130;8.158;2022-07-03T12:51:42;4.23;;;1.80;;
71187;SDS011;58893;53.130;8.158;2022-07-03T12:54:14;2.50;;;1.50;;
71187;SDS011;58893;53.130;8.158;2022-07-03T12:57:01;5.27;;;1.60;;
71187;SDS011;58893;53.130;8.158;2022-07-03T13:02:32;3.27;;;1.57;;
71187;SDS011;58893;53.130;8.158;2022-07-03T13:04:59;1.90;;;1.50;;
71187;SDS011;58893;53.130;8.158;2022-07-03T13:07:29;1.93;;;1.63;;
71187;SDS011;58893;53.130;8.158;2022-07-03T13:09:59;3.37;;;1.60;;
71187;SDS011;58893;53.130;8.158;2022-07-03T13:12:26;4.67;;;1.90;;
71187;SDS011;58893;53.130;8.158;2022-07-03T13:14:58;2.20;;;1.20;;
71187;SDS011;58893;53.130;8.158;2022-07-03T13:20:30;2.37;;;1.53;;
71187;SDS011;58893;53.130;8.158;2022-07-03T13:22:57;3.33;;;1.53;;
71187;SDS011;58893;53.130;8.158;2022-07-03T13:25:27;3.90;;;1.90;;
71187;SDS011;58893;53.130;8.158;2022-07-03T13:28:03;7.63;;;1.60;;
71187;SDS011;58893;53.130;8.158;2022-07-03T13:30:30;2.63;;;1.60;;
71187;SDS011;58893;53.130;8.158;2022-07-03T13:32:56;1.97;;;1.57;;
71187;SDS011;58893;53.130;8.158;2022-07-03T13:35:21;5.57;;;1.90;;
71187;SDS011;58893;53.130;8.158;2022-07-03T13:37:47;3.33;;;1.70;;
71187;SDS011;58893;53.130;8.158;2022-07-03T13:40:13;6.63;;;1.50;;
71187;SDS011;58893;53.130;8.158;2022-07-03T13:42:38;3.67;;;1.70;;
71187;SDS011;58893;53.130;8.158;2022-07-03T13:45:04;3.63;;;1.60;;
71187;SDS011;58893;53.130;8.158;2022-07-03T13:47:30;3.00;;;1.23;;
71187;SDS011;58893;53.130;8.158;2022-07-03T13:49:55;1.50;;;1.30;;
71187;SDS011;58893;53.130;8.158;2022-07-03T13:52:21;1.20;;;1.10;;
71187;SDS011;58893;53.130;8.158;2022-07-03T13:54:47;1.27;;;1.10;;
71187;SDS011;58893;53.130;8.158;2022-07-03T13:57:13;2.37;;;2.10;;
71187;SDS011;58893;53.130;8.158;2022-07-03T13:59:39;3.63;;;1.40;;
71187;SDS011;58893;53.130;8.158;2022-07-03T14:02:04;4.27;;;1.30;;
71187;SDS011;58893;53.130;8.158;2022-07-03T14:04:31;5.23;;;1.60;;
71187;SDS011;58893;53.130;8.158;2022-07-03T14:06:57;2.90;;;1.40;;
71187;SDS011;58893;53.130;8.158;2022-07-03T14:09:23;2.00;;;1.43;;
71187;SDS011;58893;53.130;8.158;2022-07-03T14:11:49;3.27;;;1.50;;
71187;SDS011;58893;53.130;8.158;2022-07-03T14:14:15;2.07;;;1.37;;
71187;SDS011;58893;53.130;8.158;2022-07-03T14:16:41;3.87;;;1.50;;
71187;SDS011;58893;53.130;8.158;2022-07-03T14:19:06;2.70;;;1.60;;
71187;SDS011;58893;53.130;8.158;2022-07-03T14:21:33;3.47;;;1.40;;
71187;SDS011;58893;53.130;8.158;2022-07-03T14:23:59;3.07;;;1.43;;
71187;SDS011;58893;53.130;8.158;2022-07-03T14:26:25;3.93;;;1.20;;
71187;SDS011;58893;53.130;8.158;2022-07-03T14:29:10;1.47;;;1.10;;
71187;SDS011;58893;53.130;8.158;2022-07-03T14:31:54;1.57;;;1.20;;
71187;SDS011;58893;53.130;8.158;2022-07-03T14:34:39;1.40;;;1.30;;
71187;SDS011;58893;53.130;8.158;2022-07-03T14:37:05;1.27;;;1.17;;
71187;SDS011;58893;53.130;8.158;2022-07-03T14:39:31;13.13;;;1.60;;
71187;SDS011;58893;53.130;8.158;2022-07-03T14:41:57;2.77;;;1.17;;
71187;SDS011;58893;53.130;8.158;2022-07-03T14:44:22;2.00;;;1.00;;
71187;SDS011;58893;53.130;8.158;2022-07-03T14:46:50;2.70;;;1.30;;
71187;SDS011;58893;53.130;8.158;2022-07-03T14:49:16;3.33;;;1.37;;
71187;SDS011;58893;53.130;8.158;2022-07-03T14:51:42;3.00;;;1.37;;
71187;SDS011;58893;53.130;8.158;2022-07-03T14:54:08;5.63;;;1.47;;
71187;SDS011;58893;53.130;8.158;2022-07-03T14:56:36;2.20;;;1.10;;
71187;SDS011;58893;53.130;8.158;2022-07-03T14:59:07;4.10;;;2.00;;
71187;SDS011;58893;53.130;8.158;2022-07-03T15:01:37;1.57;;;1.10;;
71187;SDS011;58893;53.130;8.158;2022-07-03T15:04:07;2.70;;;1.17;;
71187;SDS011;58893;53.130;8.158;2022-07-03T15:06:40;3.17;;;0.93;;
71187;SDS011;58893;53.130;8.158;2022-07-03T15:09:08;3.00;;;2.23;;
71187;SDS011;58893;53.130;8.158;2022-07-03T15:11:39;0.90;;;0.80;;
71187;SDS011;58893;53.130;8.158;2022-07-03T15:14:29;2.27;;;1.20;;
71187;SDS011;58893;53.130;8.158;2022-07-03T15:16:56;1.53;;;1.10;;
71187;SDS011;58893;53.130;8.158;2022-07-03T15:19:24;1.73;;;1.00;;
71187;SDS011;58893;53.130;8.158;2022-07-03T15:21:51;1.50;;;1.10;;
71187;SDS011;58893;53.130;8.158;2022-07-03T15:24:18;1.27;;;1.00;;
71187;SDS011;58893;53.130;8.158;2022-07-03T15:26:50;5.30;;;1.20;;
71187;SDS011;58893;53.130;8.158;2022-07-03T15:29:17;1.80;;;1.20;;
71187;SDS011;58893;53.130;8.158;2022-07-03T15:31:44;2.03;;;1.03;;
71187;SDS011;58893;53.130;8.158;2022-07-03T15:34:11;1.20;;;1.10;;
71187;SDS011;58893;53.130;8.158;2022-07-03T15:36:41;4.80;;;0.90;;
71187;SDS011;58893;53.130;8.158;2022-07-03T15:39:13;1.67;;;0.97;;
71187;SDS011;58893;53.130;8.158;2022-07-03T15:41:47;1.07;;;0.90;;
71187;SDS011;58893;53.130;8.158;2022-07-03T15:49:29;4.03;;;1.43;;
71187;SDS011;58893;53.130;8.158;2022-07-03T15:52:00;1.43;;;1.00;;
71187;SDS011;58893;53.130;8.158;2022-07-03T15:54:51;3.60;;;1.00;;
71187;SDS011;58893;53.130;8.158;2022-07-03T15:59:50;1.83;;;1.00;;
71187;SDS011;58893;53.130;8.158;2022-07-03T16:03:10;1.77;;;1.10;;
71187;SDS011;58893;53.130;8.158;2022-07-03T16:05:17;7.40;;;1.23;;
71187;SDS011;58893;53.130;8.158;2022-07-03T16:07:48;3.10;;;0.90;;
71187;SDS011;58893;53.130;8.158;2022-07-03T16:10:17;1.00;;;0.90;;
71187;SDS011;58893;53.130;8.158;2022-07-03T16:12:45;1.63;;;1.00;;
71187;SDS011;58893;53.130;8.158;2022-07-03T16:15:14;0.70;;;0.70;;
71187;SDS011;58893;53.130;8.158;2022-07-03T16:17:40;4.10;;;1.00;;
71187;SDS011;58893;53.130;8.158;2022-07-03T16:20:08;7.97;;;1.33;;
71187;SDS011;58893;53.130;8.158;2022-07-03T16:22:34;3.20;;;1.03;;
71187;SDS011;58893;53.130;8.158;2022-07-03T16:25:02;1.43;;;0.80;;
71187;SDS011;58893;53.130;8.158;2022-07-03T16:27:29;3.83;;;0.93;;
71187;SDS011;58893;53.130;8.158;2022-07-03T16:29:55;2.80;;;0.90;;
71187;SDS011;58893;53.130;8.158;2022-07-03T16:32:23;1.73;;;1.10;;
71187;SDS011;58893;53.130;8.158;2022-07-03T16:37:24;2.20;;;1.00;;
71187;SDS011;58893;53.130;8.158;2022-07-03T16:39:55;1.00;;;0.90;;
71187;SDS011;58893;53.130;8.158;2022-07-03T16:42:26;8.83;;;0.90;;
71187;SDS011;58893;53.130;8.158;2022-07-03T16:44:54;1.43;;;0.70;;
71187;SDS011;58893;53.130;8.158;2022-07-03T16:47:25;1.93;;;0.80;;
71187;SDS011;58893;53.130;8.158;2022-07-03T16:49:51;2.80;;;0.80;;